AXM964 VNKT-VQPR
Flight info
| Callsign | AXM964 |
|---|---|
| Flight time | 0h 40m |
| Altitude | 33000 |
| Route | IGRIS1E KIMTI G348 SUBSU DCT TAKTI DCT PRO |
| Aircraft | A320/M-SDE3FGHIRWY/LB1 |
Departure
| Time | 2025-12-29 14:02 |
|---|---|
| Airport | Tribhuvan International Airport (VNKT) |
Arrival
| Time | 2025-12-29 14:43 |
|---|---|
| Airport | Paro International Airport (VQPR) |
| Time | Latitude | Longitude | Altitude | Speed | Heading |
|---|---|---|---|---|---|
| 2025-12-29 13:35 | 27.69878 | 85.35783 | 4465 ft | 0 kts | 292° |
| 2025-12-29 13:41 | 27.69877 | 85.35788 | 4398 ft | 2 kts | 292° |
| 2025-12-29 13:42 | 27.69863 | 85.35844 | 4397 ft | 3 kts | 244° |
| 2025-12-29 13:43 | 27.69881 | 85.35878 | 4397 ft | 3 kts | 238° |
| 2025-12-29 13:43 | 27.69899 | 85.35903 | 4397 ft | 3 kts | 207° |
| 2025-12-29 13:44 | 27.69906 | 85.35907 | 4397 ft | 0 kts | 200° |
| 2025-12-29 13:54 | 27.69886 | 85.35899 | 4398 ft | 11 kts | 200° |
| 2025-12-29 13:54 | 27.69661 | 85.35796 | 4398 ft | 22 kts | 202° |
| 2025-12-29 13:55 | 27.69293 | 85.35628 | 4394 ft | 32 kts | 201° |
| 2025-12-29 13:55 | 27.69104 | 85.35548 | 4388 ft | 8 kts | 184° |
| 2025-12-29 13:56 | 27.69101 | 85.35549 | 4388 ft | 0 kts | 174° |
| 2025-12-29 13:59 | 27.68986 | 85.35602 | 4426 ft | 20 kts | 190° |
| 2025-12-29 13:59 | 27.68825 | 85.35527 | 4426 ft | 30 kts | 200° |
| 2025-12-29 14:00 | 27.68453 | 85.35337 | 4431 ft | 10 kts | 254° |
| 2025-12-29 14:00 | 27.68451 | 85.35364 | 4431 ft | 12 kts | 19° |
| 2025-12-29 14:01 | 27.69298 | 85.35751 | 4430 ft | 144 kts | 21° |
| 2025-12-29 14:01 | 27.71534 | 85.36801 | 5764 ft | 180 kts | 24° |
| 2025-12-29 14:01 | 27.72711 | 85.37427 | 6437 ft | 193 kts | 31° |
| 2025-12-29 14:02 | 27.74043 | 85.42239 | 8061 ft | 253 kts | 90° |
| 2025-12-29 14:03 | 27.72721 | 85.46017 | 9792 ft | 283 kts | 129° |
| 2025-12-29 14:03 | 27.70007 | 85.49761 | 10875 ft | 334 kts | 131° |
| 2025-12-29 14:04 | 27.66844 | 85.54040 | 12233 ft | 369 kts | 130° |
| 2025-12-29 14:04 | 27.63494 | 85.58598 | 14019 ft | 385 kts | 132° |
| 2025-12-29 14:05 | 27.60543 | 85.63765 | 15580 ft | 402 kts | 112° |
| 2025-12-29 14:05 | 27.58764 | 85.69822 | 17227 ft | 413 kts | 113° |
| 2025-12-29 14:05 | 27.57522 | 85.72760 | 18074 ft | 417 kts | 117° |
| 2025-12-29 14:06 | 27.53549 | 85.81717 | 20248 ft | 433 kts | 117° |
| 2025-12-29 14:07 | 27.51393 | 85.88126 | 21618 ft | 444 kts | 101° |
| 2025-12-29 14:07 | 27.50881 | 85.95067 | 22969 ft | 452 kts | 90° |
| 2025-12-29 14:08 | 27.50633 | 86.02221 | 24193 ft | 461 kts | 90° |
| 2025-12-29 14:09 | 27.50047 | 86.16920 | 26304 ft | 477 kts | 90° |
| 2025-12-29 14:11 | 27.45731 | 86.47320 | 30383 ft | 508 kts | 102° |
| 2025-12-29 14:13 | 27.39590 | 86.79042 | 33092 ft | 523 kts | 102° |
| 2025-12-29 14:15 | 27.33518 | 87.10031 | 33101 ft | 504 kts | 103° |
| 2025-12-29 14:17 | 27.22142 | 87.36754 | 33090 ft | 496 kts | 124° |
| 2025-12-29 14:19 | 27.07619 | 87.63027 | 33074 ft | 495 kts | 125° |
| 2025-12-29 14:21 | 26.93075 | 87.89153 | 33068 ft | 493 kts | 125° |
| 2025-12-29 14:23 | 26.78494 | 88.15186 | 33067 ft | 492 kts | 126° |
| 2025-12-29 14:24 | 26.73309 | 88.40206 | 33069 ft | 492 kts | 64° |
| 2025-12-29 14:27 | 26.88987 | 88.69431 | 29460 ft | 485 kts | 54° |
| 2025-12-29 14:29 | 27.02328 | 88.94462 | 23821 ft | 449 kts | 58° |
| 2025-12-29 14:29 | 27.03816 | 88.97511 | 23214 ft | 442 kts | 58° |
| 2025-12-29 14:30 | 27.08084 | 89.06226 | 22424 ft | 402 kts | 57° |
| 2025-12-29 14:30 | 27.10721 | 89.11524 | 22085 ft | 375 kts | 57° |
| 2025-12-29 14:31 | 27.13185 | 89.16466 | 21763 ft | 353 kts | 57° |
| 2025-12-29 14:31 | 27.15550 | 89.21208 | 20970 ft | 351 kts | 57° |
| 2025-12-29 14:32 | 27.18434 | 89.25574 | 19896 ft | 348 kts | 38° |
| 2025-12-29 14:32 | 27.22500 | 89.28424 | 18837 ft | 345 kts | 17° |
| 2025-12-29 14:33 | 27.27113 | 89.29610 | 17669 ft | 343 kts | 7° |
| 2025-12-29 14:33 | 27.29462 | 89.30072 | 17134 ft | 342 kts | 7° |
| 2025-12-29 14:33 | 27.34008 | 89.30606 | 16121 ft | 314 kts | 349° |
| 2025-12-29 14:34 | 27.39413 | 89.27476 | 15031 ft | 273 kts | 325° |
| 2025-12-29 14:35 | 27.42561 | 89.25768 | 14958 ft | 239 kts | 351° |
| 2025-12-29 14:35 | 27.45693 | 89.26400 | 14490 ft | 231 kts | 28° |
| 2025-12-29 14:36 | 27.45862 | 89.26510 | 14452 ft | 230 kts | 31° |
| 2025-12-29 14:37 | 27.47872 | 89.28930 | 14227 ft | 219 kts | 66° |
| 2025-12-29 14:38 | 27.47811 | 89.33718 | 14026 ft | 198 kts | 117° |
| 2025-12-29 14:39 | 27.46124 | 89.36247 | 12646 ft | 223 kts | 137° |
| 2025-12-29 14:39 | 27.43413 | 89.36735 | 11353 ft | 205 kts | 206° |
| 2025-12-29 14:40 | 27.42177 | 89.38410 | 9759 ft | 201 kts | 48° |
| 2025-12-29 14:40 | 27.43612 | 89.40710 | 8286 ft | 182 kts | 115° |
| 2025-12-29 14:41 | 27.41581 | 89.41737 | 7567 ft | 161 kts | 168° |
| 2025-12-29 14:41 | 27.40629 | 89.42279 | 7373 ft | 142 kts | 152° |
| 2025-12-29 14:41 | 27.39595 | 89.42935 | 7370 ft | 53 kts | 150° |
| 2025-12-29 14:42 | 27.39513 | 89.42879 | 7367 ft | 15 kts | 331° |
| 2025-12-29 14:43 | 27.39720 | 89.42748 | 7369 ft | 20 kts | 330° |
| 2025-12-29 14:43 | 27.39985 | 89.42579 | 7366 ft | 24 kts | 330° |
| 2025-12-29 14:44 | 27.40294 | 89.42382 | 7364 ft | 25 kts | 330° |
| 2025-12-29 14:44 | 27.40582 | 89.42202 | 7368 ft | 21 kts | 331° |
| 2025-12-29 14:45 | 27.40624 | 89.42099 | 7364 ft | 0 kts | 238° |
| 2025-12-29 14:45 | 27.40622 | 89.42095 | 7364 ft | 0 kts | 241° |